Time;durP1;ratioP1;P1;durP2;ratioP2;P2;SDS_P1;SDS_P2;PMS_P1;PMS_P2;Temp;Humidity;BMP_temperature;BMP_pressure;BME280_temperature;BME280_humidity;BME280_pressure;Samples;Min_cycle;Max_cycle;Signal;HPM_P1;HPM_P2
2021/04/29 00:00:32;;;;;;;15.60;10.13;;;9.40;67.80;;;;;;4972351;28;20061;-51
2021/04/29 00:02:57;;;;;;;19.27;11.27;;;9.50;67.60;;;;;;4984466;28;20047;-49
2021/04/29 00:05:27;;;;;;;15.20;10.93;;;9.50;67.70;;;;;;4988285;28;20473;-48
2021/04/29 00:07:53;;;;;;;17.77;11.10;;;9.50;67.20;;;;;;4972517;28;20039;-48
2021/04/29 00:10:22;;;;;;;20.75;11.73;;;9.40;67.60;;;;;;4985954;28;20391;-49
2021/04/29 00:12:51;;;;;;;18.80;11.10;;;9.50;67.50;;;;;;4987765;28;20427;-48
2021/04/29 00:15:17;;;;;;;18.25;11.98;;;9.50;67.70;;;;;;4982482;28;20135;-52
2021/04/29 00:17:43;;;;;;;17.52;11.10;;;9.60;67.60;;;;;;4991517;28;20091;-49
2021/04/29 00:20:15;;;;;;;17.80;11.77;;;9.60;67.10;;;;;;4982370;28;20067;-51
2021/04/29 00:22:41;;;;;;;17.65;11.57;;;9.60;67.80;;;;;;4987914;28;20038;-50
2021/04/29 00:25:08;;;;;;;18.05;11.63;;;9.50;67.60;;;;;;4992276;28;20402;-49
2021/04/29 00:27:34;;;;;;;18.17;11.65;;;9.40;67.90;;;;;;4978480;28;20506;-53
2021/04/29 00:29:59;;;;;;;19.35;12.10;;;9.40;68.60;;;;;;4984329;28;20030;-53
2021/04/29 00:32:25;;;;;;;19.45;12.40;;;9.50;68.20;;;;;;4990532;28;20050;-53
2021/04/29 00:34:51;;;;;;;17.88;11.98;;;9.50;68.10;;;;;;4986141;28;20475;-50
2021/04/29 00:37:19;;;;;;;18.80;12.15;;;9.50;67.80;;;;;;4977777;28;20081;-49
2021/04/29 00:39:47;;;;;;;21.08;11.90;;;9.50;67.90;;;;;;4975540;28;20038;-49
2021/04/29 00:42:12;;;;;;;20.58;11.98;;;9.60;67.80;;;;;;4989883;28;20092;-50
2021/04/29 00:44:38;;;;;;;17.25;10.57;;;9.60;67.70;;;;;;4991197;28;20467;-49
2021/04/29 00:47:04;;;;;;;20.40;11.75;;;9.60;67.30;;;;;;4983109;28;20519;-50
2021/04/29 00:49:31;;;;;;;16.73;10.98;;;9.60;67.30;;;;;;4983957;28;20045;-50
2021/04/29 00:51:57;;;;;;;16.50;11.13;;;9.50;67.70;;;;;;4991394;28;20046;-50
2021/04/29 00:54:22;;;;;;;18.70;11.45;;;9.50;67.30;;;;;;4991307;28;20107;-53
2021/04/29 00:56:48;;;;;;;18.95;11.60;;;9.60;67.30;;;;;;4990813;28;20043;-51
2021/04/29 00:59:13;;;;;;;18.35;11.55;;;9.50;67.50;;;;;;4992409;28;20038;-51
2021/04/29 01:01:44;;;;;;;19.42;12.07;;;9.50;67.40;;;;;;4992382;28;20039;-53
2021/04/29 01:04:33;;;;;;;22.85;11.52;;;9.40;67.40;;;;;;4979149;28;20164;-49
2021/04/29 01:07:04;;;;;;;16.33;11.23;;;9.50;67.10;;;;;;4992281;28;20475;-50
2021/04/29 01:09:43;;;;;;;18.08;12.00;;;9.40;67.90;;;;;;4974546;28;20046;-50
2021/04/29 01:12:23;;;;;;;18.75;11.20;;;9.50;67.00;;;;;;4979926;28;20043;-49
2021/04/29 01:14:52;;;;;;;21.70;12.55;;;9.40;67.80;;;;;;4983320;28;20053;-49
2021/04/29 01:17:19;;;;;;;19.48;12.57;;;9.30;67.80;;;;;;4990375;28;20526;-51
2021/04/29 01:19:50;;;;;;;17.73;11.50;;;9.20;68.00;;;;;;4990717;28;20421;-49
2021/04/29 01:22:16;;;;;;;21.67;12.38;;;9.30;67.70;;;;;;4992210;28;20053;-50
2021/04/29 01:24:52;;;;;;;16.67;11.38;;;9.20;68.10;;;;;;4988058;28;20073;-49
2021/04/29 01:27:19;;;;;;;16.35;11.63;;;9.20;68.50;;;;;;4983406;28;20050;-52
2021/04/29 01:29:46;;;;;;;17.08;12.18;;;9.20;68.40;;;;;;4991751;28;20060;-52
2021/04/29 01:32:12;;;;;;;22.05;12.35;;;9.30;68.30;;;;;;4983477;28;20059;-50
2021/04/29 01:34:38;;;;;;;17.10;11.80;;;9.20;68.50;;;;;;4972095;28;20200;-54
2021/04/29 01:37:06;;;;;;;17.42;12.32;;;9.20;69.10;;;;;;4984602;28;20058;-51
2021/04/29 01:39:33;;;;;;;17.98;12.30;;;9.20;69.00;;;;;;4984692;28;20048;-48
2021/04/29 01:42:00;;;;;;;24.05;12.82;;;9.10;69.60;;;;;;4990504;28;20339;-48
2021/04/29 01:44:26;;;;;;;18.45;11.85;;;9.10;69.20;;;;;;4992960;28;20342;-51
2021/04/29 01:46:55;;;;;;;17.83;11.55;;;9.10;69.10;;;;;;4990807;28;20469;-53
2021/04/29 01:49:21;;;;;;;18.70;12.68;;;9.00;69.30;;;;;;4990845;28;20057;-48
2021/04/29 01:51:51;;;;;;;20.27;12.18;;;8.90;68.90;;;;;;4997281;28;20050;-49
2021/04/29 01:54:18;;;;;;;18.70;12.60;;;9.00;69.00;;;;;;4995651;28;20075;-49
2021/04/29 01:56:47;;;;;;;19.02;12.27;;;9.00;68.60;;;;;;4991473;28;20060;-53
2021/04/29 01:59:14;;;;;;;19.35;12.07;;;8.90;68.90;;;;;;4980632;28;20387;-49
2021/04/29 02:01:42;;;;;;;18.30;11.77;;;8.90;68.70;;;;;;4993060;28;20042;-49
2021/04/29 02:04:08;;;;;;;19.77;12.45;;;8.90;68.90;;;;;;4979287;28;20034;-49
2021/04/29 02:06:35;;;;;;;17.70;12.85;;;8.90;68.80;;;;;;4994812;28;20065;-50
2021/04/29 02:09:02;;;;;;;16.67;11.98;;;8.90;69.00;;;;;;4990028;28;20055;-49
2021/04/29 02:11:31;;;;;;;20.80;12.30;;;8.90;68.90;;;;;;4984708;28;20521;-49
2021/04/29 02:14:03;;;;;;;17.30;11.80;;;9.00;69.00;;;;;;4990732;28;20042;-50
2021/04/29 02:16:37;;;;;;;18.63;11.98;;;8.90;69.00;;;;;;4983649;28;20035;-51
2021/04/29 02:19:04;;;;;;;18.67;12.18;;;8.80;69.30;;;;;;4989138;28;20099;-48
2021/04/29 02:21:31;;;;;;;22.00;12.80;;;8.80;69.60;;;;;;4980344;28;20077;-50
2021/04/29 02:23:56;;;;;;;24.60;12.75;;;8.90;69.30;;;;;;4991810;28;20514;-53
2021/04/29 02:26:23;;;;;;;19.90;13.38;;;8.90;69.20;;;;;;4989561;28;20035;-49
2021/04/29 02:28:50;;;;;;;19.80;13.15;;;8.80;69.50;;;;;;4979601;28;20050;-49
2021/04/29 02:31:16;;;;;;;18.83;12.25;;;8.70;69.70;;;;;;4989340;28;20034;-49
2021/04/29 02:33:46;;;;;;;19.63;12.82;;;8.80;70.00;;;;;;4991748;28;20141;-49
2021/04/29 02:36:12;;;;;;;20.63;13.02;;;8.80;69.90;;;;;;4990366;28;20117;-49
2021/04/29 02:38:40;;;;;;;21.77;12.95;;;8.70;70.20;;;;;;4993267;28;20103;-52
2021/04/29 02:41:08;;;;;;;20.23;13.02;;;8.80;70.50;;;;;;4979668;28;20069;-52
2021/04/29 02:43:36;;;;;;;17.77;13.20;;;8.80;70.40;;;;;;4970185;28;20042;-49
2021/04/29 02:46:03;;;;;;;21.08;11.93;;;8.80;70.30;;;;;;4968151;28;20047;-48
2021/04/29 02:48:30;;;;;;;20.17;13.23;;;8.80;70.70;;;;;;4990971;28;20042;-49
2021/04/29 02:51:02;;;;;;;21.33;13.30;;;8.70;70.60;;;;;;4992711;28;20112;-51
2021/04/29 02:53:28;;;;;;;18.73;12.85;;;8.80;70.60;;;;;;4993608;28;20038;-49
2021/04/29 02:55:54;;;;;;;19.20;12.25;;;8.80;70.80;;;;;;4995898;28;20053;-48
2021/04/29 02:58:20;;;;;;;21.15;13.30;;;8.80;71.10;;;;;;4992616;28;20039;-51
2021/04/29 03:00:46;;;;;;;23.00;13.63;;;8.70;71.10;;;;;;4983601;28;20050;-49
2021/04/29 03:03:12;;;;;;;23.48;14.70;;;8.70;71.60;;;;;;4980481;28;20069;-48
2021/04/29 03:05:39;;;;;;;19.65;13.68;;;8.80;70.90;;;;;;4977940;28;20108;-49
2021/04/29 03:08:05;;;;;;;22.98;12.77;;;8.70;71.60;;;;;;4974335;28;20061;-48
2021/04/29 03:10:31;;;;;;;20.33;13.90;;;8.80;71.70;;;;;;4985898;28;20034;-49
2021/04/29 03:12:58;;;;;;;21.27;12.55;;;8.70;71.70;;;;;;4976081;28;20112;-49
2021/04/29 03:15:23;;;;;;;20.30;13.00;;;8.70;72.10;;;;;;4989340;28;20039;-50
2021/04/29 03:17:49;;;;;;;20.98;13.55;;;8.70;71.90;;;;;;4991332;28;20490;-48
2021/04/29 03:20:15;;;;;;;22.52;14.35;;;8.60;72.40;;;;;;4987451;28;20042;-50
2021/04/29 03:22:41;;;;;;;26.00;14.55;;;8.60;72.30;;;;;;4981694;28;20130;-50
2021/04/29 03:25:08;;;;;;;21.20;13.70;;;8.70;72.70;;;;;;4973825;28;20042;-49
2021/04/29 03:27:35;;;;;;;25.20;13.35;;;8.80;72.70;;;;;;4990750;28;20030;-48
2021/04/29 03:30:01;;;;;;;23.63;14.52;;;8.70;72.60;;;;;;4991078;28;20547;-50
2021/04/29 03:32:26;;;;;;;22.00;14.73;;;8.60;72.80;;;;;;4991437;28;20049;-48
2021/04/29 03:34:52;;;;;;;25.40;14.77;;;8.60;72.90;;;;;;4990498;28;20159;-50
2021/04/29 03:37:18;;;;;;;25.80;14.50;;;8.50;73.40;;;;;;4991859;28;20149;-51
2021/04/29 03:39:44;;;;;;;19.15;13.90;;;8.60;73.80;;;;;;4993191;28;20050;-48
2021/04/29 03:42:11;;;;;;;22.08;13.95;;;8.50;74.10;;;;;;4993745;28;20099;-51
2021/04/29 03:44:43;;;;;;;23.27;14.52;;;8.50;74.00;;;;;;4993772;28;20046;-51
2021/04/29 03:47:09;;;;;;;23.33;14.60;;;8.70;73.30;;;;;;4981510;28;20046;-50
2021/04/29 03:49:35;;;;;;;27.35;14.75;;;8.70;73.70;;;;;;4981680;28;20552;-51
2021/04/29 03:52:01;;;;;;;24.98;15.15;;;8.60;74.40;;;;;;5005368;28;20046;-49
2021/04/29 03:54:27;;;;;;;25.08;15.27;;;8.60;74.50;;;;;;4989908;28;20282;-49
2021/04/29 03:56:53;;;;;;;26.70;15.93;;;8.60;74.80;;;;;;4990276;28;20051;-48
2021/04/29 03:59:20;;;;;;;23.83;15.65;;;8.60;74.50;;;;;;4990585;28;20042;-47
2021/04/29 04:01:46;;;;;;;23.35;16.17;;;8.50;75.00;;;;;;4973523;28;20050;-48
2021/04/29 04:04:11;;;;;;;24.90;15.82;;;8.60;75.20;;;;;;5000522;28;20054;-50
2021/04/29 04:06:37;;;;;;;27.92;16.45;;;8.60;75.40;;;;;;4987347;28;20091;-50
2021/04/29 04:09:04;;;;;;;22.30;15.35;;;8.60;75.00;;;;;;4991048;28;20468;-50
2021/04/29 04:11:31;;;;;;;24.90;17.48;;;8.60;75.80;;;;;;4977125;28;20422;-49
2021/04/29 04:13:57;;;;;;;28.20;16.98;;;8.60;76.00;;;;;;5021024;28;20037;-49
2021/04/29 04:16:26;;;;;;;29.00;17.65;;;8.40;76.30;;;;;;4976601;28;20043;-51
2021/04/29 04:18:52;;;;;;;25.65;16.73;;;8.40;76.70;;;;;;5018659;28;20034;-50
2021/04/29 04:21:18;;;;;;;24.70;17.10;;;8.40;76.70;;;;;;4992851;28;20045;-50
2021/04/29 04:23:43;;;;;;;26.48;17.58;;;8.40;76.80;;;;;;4999465;28;20050;-48
2021/04/29 04:26:09;;;;;;;27.83;17.77;;;8.40;76.70;;;;;;4984996;28;20053;-49
2021/04/29 04:28:35;;;;;;;26.00;17.85;;;8.50;76.60;;;;;;4976330;28;20051;-52
2021/04/29 04:31:00;;;;;;;30.42;19.48;;;8.40;76.40;;;;;;4995001;28;20046;-49
2021/04/29 04:33:26;;;;;;;29.83;18.50;;;8.40;76.80;;;;;;5046800;28;20061;-50
2021/04/29 04:35:52;;;;;;;25.75;18.13;;;8.40;77.20;;;;;;4990224;28;20046;-50
2021/04/29 04:38:17;;;;;;;25.77;18.40;;;8.40;77.50;;;;;;4979348;28;20103;-51
2021/04/29 04:40:44;;;;;;;28.65;18.80;;;8.40;77.10;;;;;;5033925;28;20045;-51
2021/04/29 04:43:10;;;;;;;27.75;18.92;;;8.40;77.50;;;;;;5004693;28;20563;-49
2021/04/29 04:45:36;;;;;;;24.48;17.55;;;8.40;77.70;;;;;;4992089;28;20042;-51
2021/04/29 04:48:02;;;;;;;33.67;19.17;;;8.40;77.30;;;;;;4990538;28;20053;-51
2021/04/29 04:50:28;;;;;;;28.45;19.52;;;8.40;77.50;;;;;;4999388;28;20047;-51
2021/04/29 04:52:53;;;;;;;24.13;17.48;;;8.60;77.30;;;;;;4993957;28;20115;-51
2021/04/29 04:55:19;;;;;;;28.90;20.10;;;8.60;77.30;;;;;;5032976;28;20044;-50
2021/04/29 04:57:45;;;;;;;31.05;19.05;;;8.50;77.50;;;;;;5007043;28;20050;-48
2021/04/29 05:00:11;;;;;;;28.98;19.92;;;8.50;77.50;;;;;;4991644;28;20091;-52
2021/04/29 05:02:39;;;;;;;29.00;18.75;;;8.40;77.50;;;;;;4990906;28;20066;-50
2021/04/29 05:05:07;;;;;;;29.60;18.88;;;8.40;78.10;;;;;;5046805;28;20051;-50
2021/04/29 05:07:33;;;;;;;34.33;19.70;;;8.50;78.00;;;;;;4990853;28;20057;-52
2021/04/29 05:09:59;;;;;;;27.98;19.52;;;8.40;77.60;;;;;;4983213;28;20403;-52
2021/04/29 05:12:25;;;;;;;29.42;19.73;;;8.40;78.10;;;;;;5044390;28;20046;-53
2021/04/29 05:14:50;;;;;;;32.67;19.48;;;8.50;77.70;;;;;;4990199;28;20060;-53
2021/04/29 05:17:18;;;;;;;31.27;20.17;;;8.60;78.00;;;;;;4989499;28;20062;-52
2021/04/29 05:19:47;;;;;;;32.03;19.73;;;8.60;78.00;;;;;;5024298;28;20044;-50
2021/04/29 05:22:15;;;;;;;31.65;20.33;;;8.60;77.90;;;;;;5013123;28;20035;-54
2021/04/29 05:24:42;;;;;;;34.08;21.08;;;8.50;78.20;;;;;;4990062;28;20049;-52
2021/04/29 05:27:08;;;;;;;32.28;20.75;;;8.50;78.50;;;;;;4992951;28;20059;-50
2021/04/29 05:29:34;;;;;;;29.02;19.95;;;8.50;78.90;;;;;;4991803;28;20038;-52
2021/04/29 05:32:00;;;;;;;29.20;19.17;;;8.60;78.80;;;;;;5000520;28;20452;-51
2021/04/29 05:34:27;;;;;;;29.45;18.98;;;8.70;79.10;;;;;;4987128;28;20034;-52
2021/04/29 05:36:55;;;;;;;29.40;20.00;;;8.80;78.80;;;;;;4975138;28;20046;-54
2021/04/29 05:39:20;;;;;;;28.23;20.00;;;8.90;78.30;;;;;;4990360;28;20036;-54
2021/04/29 05:41:46;;;;;;;33.17;19.60;;;8.90;78.10;;;;;;4992144;28;20039;-51
2021/04/29 05:44:13;;;;;;;32.25;20.02;;;8.80;78.30;;;;;;5020214;28;20105;-53
2021/04/29 05:46:41;;;;;;;31.90;20.98;;;8.80;78.50;;;;;;4983118;28;20046;-52
2021/04/29 05:49:11;;;;;;;33.05;21.33;;;8.90;78.20;;;;;;4975878;28;20046;-52
2021/04/29 05:51:38;;;;;;;34.45;21.02;;;8.80;78.70;;;;;;4981655;28;20049;-50
2021/04/29 05:54:05;;;;;;;30.98;20.40;;;8.80;79.30;;;;;;5008659;28;20036;-51
2021/04/29 05:56:31;;;;;;;30.67;19.92;;;8.90;78.60;;;;;;5026617;28;20422;-53
2021/04/29 05:58:58;;;;;;;28.70;20.63;;;8.90;78.60;;;;;;4988946;28;20444;-52
2021/04/29 06:01:25;;;;;;;31.52;19.10;;;8.90;79.10;;;;;;4988842;28;20046;-52
2021/04/29 06:03:56;;;;;;;30.50;18.83;;;8.90;79.20;;;;;;4988593;28;20057;-53
2021/04/29 06:06:22;;;;;;;33.35;20.85;;;9.00;79.00;;;;;;4987846;28;20045;-54
2021/04/29 06:08:47;;;;;;;35.38;20.92;;;8.90;78.70;;;;;;4983085;28;20050;-49
2021/04/29 06:11:14;;;;;;;29.20;19.85;;;8.90;79.30;;;;;;4999102;28;20120;-52
2021/04/29 06:13:44;;;;;;;36.38;21.75;;;8.90;79.50;;;;;;5024314;28;20038;-52
2021/04/29 06:16:10;;;;;;;29.05;20.10;;;8.90;79.30;;;;;;4988451;28;20042;-51
2021/04/29 06:18:36;;;;;;;32.33;20.20;;;9.00;78.90;;;;;;4989221;28;20034;-53
2021/04/29 06:21:03;;;;;;;34.33;21.05;;;8.90;78.80;;;;;;4989942;28;20550;-53
2021/04/29 06:23:31;;;;;;;28.73;21.05;;;9.00;79.30;;;;;;4990015;28;20046;-51
2021/04/29 06:25:57;;;;;;;34.88;20.25;;;8.90;78.90;;;;;;4986967;28;20049;-52
2021/04/29 06:28:23;;;;;;;32.70;20.25;;;9.00;78.70;;;;;;4985936;28;20042;-53
2021/04/29 06:30:48;;;;;;;34.33;20.70;;;9.10;78.70;;;;;;4981337;28;20042;-51
2021/04/29 06:33:14;;;;;;;32.20;19.75;;;9.00;78.40;;;;;;5007485;28;20481;-52
2021/04/29 06:35:39;;;;;;;27.40;19.73;;;9.00;78.70;;;;;;5027222;28;20121;-53
2021/04/29 06:38:05;;;;;;;31.25;19.20;;;9.00;78.40;;;;;;4987795;28;20633;-51
2021/04/29 06:40:31;;;;;;;29.15;19.35;;;9.10;78.40;;;;;;4988788;28;20034;-53
2021/04/29 06:42:57;;;;;;;28.95;20.25;;;9.10;78.80;;;;;;4975493;28;20051;-53
2021/04/29 06:45:23;;;;;;;30.42;21.05;;;9.10;78.50;;;;;;4988867;28;20391;-52
2021/04/29 06:47:49;;;;;;;28.85;20.98;;;9.10;79.20;;;;;;4976895;28;20073;-53
2021/04/29 06:50:15;;;;;;;31.80;20.48;;;9.10;79.10;;;;;;4984996;28;20039;-49
2021/04/29 06:52:41;;;;;;;30.33;20.52;;;9.10;79.70;;;;;;4979479;28;20045;-52
2021/04/29 06:55:07;;;;;;;28.10;21.10;;;9.10;79.30;;;;;;4987489;28;20043;-50
2021/04/29 06:57:33;;;;;;;33.30;21.50;;;9.00;79.90;;;;;;4987897;28;20396;-49
2021/04/29 06:59:59;;;;;;;35.70;22.38;;;9.10;79.90;;;;;;4987667;28;20133;-50
2021/04/29 07:02:25;;;;;;;33.22;21.52;;;9.00;80.20;;;;;;4968359;28;20047;-53
2021/04/29 07:04:56;;;;;;;33.17;22.17;;;9.00;80.40;;;;;;4976545;28;20050;-53
2021/04/29 07:07:24;;;;;;;32.92;21.83;;;9.00;80.60;;;;;;4955430;28;20479;-54
2021/04/29 07:09:49;;;;;;;36.47;21.35;;;8.90;80.90;;;;;;4974410;28;20129;-53
2021/04/29 07:12:16;;;;;;;28.88;21.48;;;8.90;81.10;;;;;;4982967;28;20046;-53
2021/04/29 07:14:42;;;;;;;33.08;22.42;;;8.80;81.60;;;;;;4967792;28;20042;-53
2021/04/29 07:17:09;;;;;;;28.90;21.20;;;8.80;81.50;;;;;;4970163;28;20125;-53
2021/04/29 07:19:34;;;;;;;37.00;21.60;;;8.80;81.90;;;;;;4973976;28;20039;-54
2021/04/29 07:22:00;;;;;;;34.20;21.77;;;8.80;82.10;;;;;;4988995;28;20177;-51
2021/04/29 07:24:26;;;;;;;32.08;22.70;;;8.80;82.50;;;;;;5044508;28;20404;-53
2021/04/29 07:26:51;;;;;;;32.10;22.02;;;8.80;82.80;;;;;;4988385;28;20184;-53
2021/04/29 07:29:17;;;;;;;32.20;21.85;;;8.80;82.80;;;;;;4988632;28;20050;-53
2021/04/29 07:31:43;;;;;;;32.42;22.08;;;8.80;83.10;;;;;;4987172;28;20071;-53
2021/04/29 07:34:08;;;;;;;32.20;22.67;;;8.80;83.20;;;;;;4975985;28;20113;-52
2021/04/29 07:36:36;;;;;;;32.03;22.75;;;8.80;83.50;;;;;;5026920;28;20033;-49
2021/04/29 07:39:03;;;;;;;35.03;23.15;;;8.80;84.20;;;;;;4998837;28;20046;-52
2021/04/29 07:41:29;;;;;;;34.50;22.08;;;8.80;84.50;;;;;;4987452;28;20156;-53
2021/04/29 07:43:56;;;;;;;35.13;22.45;;;8.70;84.40;;;;;;4986856;28;20571;-48
2021/04/29 07:46:23;;;;;;;39.58;24.60;;;8.70;85.00;;;;;;4979845;28;20043;-52
2021/04/29 07:48:49;;;;;;;38.60;23.75;;;8.70;85.20;;;;;;4988817;28;20081;-49
2021/04/29 07:51:15;;;;;;;39.78;24.80;;;8.70;85.30;;;;;;4991558;28;20070;-53
2021/04/29 07:53:40;;;;;;;33.60;23.10;;;8.60;85.50;;;;;;4978111;28;20462;-48
2021/04/29 07:56:06;;;;;;;35.15;24.10;;;8.60;85.90;;;;;;4990123;28;20038;-49
2021/04/29 07:58:32;;;;;;;41.10;23.95;;;8.60;86.00;;;;;;4989742;28;20030;-52
2021/04/29 08:00:57;;;;;;;39.45;24.30;;;8.60;86.20;;;;;;4977864;28;20058;-51
2021/04/29 08:03:23;;;;;;;36.50;25.90;;;8.60;86.70;;;;;;4991703;28;20040;-52
2021/04/29 08:05:49;;;;;;;43.60;25.48;;;8.60;87.60;;;;;;4991207;28;20461;-49
2021/04/29 08:08:15;;;;;;;35.35;25.23;;;8.60;87.30;;;;;;4991083;28;20478;-49
2021/04/29 08:10:41;;;;;;;37.88;26.20;;;8.50;88.00;;;;;;4993460;28;20126;-53
2021/04/29 08:13:10;;;;;;;40.00;26.17;;;8.50;87.70;;;;;;4991949;28;20050;-50
2021/04/29 08:15:36;;;;;;;39.45;27.08;;;8.50;88.20;;;;;;4991486;28;20141;-54
2021/04/29 08:18:01;;;;;;;43.28;26.83;;;8.50;89.20;;;;;;4991017;28;20062;-50
2021/04/29 08:20:27;;;;;;;40.63;26.33;;;8.50;88.90;;;;;;4992981;28;20553;-50
2021/04/29 08:22:53;;;;;;;38.22;26.67;;;8.50;89.50;;;;;;4982472;28;20115;-52
2021/04/29 08:25:19;;;;;;;41.97;26.30;;;8.50;89.40;;;;;;4991400;28;20047;-50
2021/04/29 08:27:45;;;;;;;37.38;25.30;;;8.50;89.50;;;;;;4990281;28;20041;-52
2021/04/29 08:30:13;;;;;;;39.63;25.27;;;8.50;90.00;;;;;;4991252;28;20050;-49
2021/04/29 08:32:39;;;;;;;38.85;25.55;;;8.50;90.10;;;;;;4989079;28;20057;-52
2021/04/29 08:35:05;;;;;;;39.10;25.73;;;8.50;90.10;;;;;;4982314;28;20046;-53
2021/04/29 08:37:31;;;;;;;38.72;25.92;;;8.50;90.20;;;;;;4989227;28;20133;-52
2021/04/29 08:39:56;;;;;;;40.00;26.10;;;8.50;90.30;;;;;;5047817;28;20473;-52
2021/04/29 08:42:26;;;;;;;41.38;25.58;;;8.40;90.40;;;;;;4990587;28;20039;-52
2021/04/29 08:44:52;;;;;;;40.00;27.40;;;8.40;90.50;;;;;;4976645;28;20498;-48
2021/04/29 08:47:19;;;;;;;39.90;24.58;;;8.40;90.90;;;;;;4979781;28;20054;-48
2021/04/29 08:49:44;;;;;;;42.63;27.13;;;8.50;90.90;;;;;;4987091;28;20065;-52
2021/04/29 08:52:10;;;;;;;51.13;32.78;;;8.40;90.90;;;;;;4990517;28;20494;-50
2021/04/29 08:54:38;;;;;;;39.05;26.08;;;8.40;91.10;;;;;;5015848;28;20080;-48
2021/04/29 08:57:05;;;;;;;39.33;25.67;;;8.30;91.50;;;;;;4983852;28;20053;-51
2021/04/29 08:59:31;;;;;;;44.42;26.27;;;8.30;91.30;;;;;;5015306;28;20650;-49
2021/04/29 09:01:57;;;;;;;46.75;28.60;;;8.30;91.30;;;;;;4990680;28;20125;-53
2021/04/29 09:04:23;;;;;;;43.22;26.75;;;8.30;91.40;;;;;;4984446;28;20042;-51
2021/04/29 09:06:50;;;;;;;46.78;27.70;;;8.30;91.30;;;;;;4982079;28;20035;-49
2021/04/29 09:09:18;;;;;;;45.28;27.35;;;8.30;91.40;;;;;;4990189;28;20038;-50
2021/04/29 09:11:56;;;;;;;49.13;27.98;;;8.30;91.50;;;;;;4990068;28;20045;-50
2021/04/29 09:14:33;;;;;;;44.05;26.80;;;8.20;91.30;;;;;;4974792;28;20046;-50
2021/04/29 09:16:59;;;;;;;39.47;27.60;;;8.30;91.60;;;;;;4970698;28;20572;-49
2021/04/29 09:19:27;;;;;;;42.28;27.48;;;8.40;91.70;;;;;;4988989;28;20072;-50
2021/04/29 09:21:54;;;;;;;45.17;28.95;;;8.40;91.70;;;;;;4990054;28;20076;-53
2021/04/29 09:24:40;;;;;;;42.75;26.95;;;8.40;91.90;;;;;;4990479;28;20047;-48
2021/04/29 09:27:09;;;;;;;44.72;28.33;;;8.40;92.00;;;;;;4989057;28;20057;-51
2021/04/29 09:29:35;;;;;;;48.53;29.75;;;8.30;91.70;;;;;;4989860;28;20133;-54
2021/04/29 09:32:01;;;;;;;45.03;28.63;;;8.40;91.70;;;;;;4990000;28;20582;-48
2021/04/29 09:34:37;;;;;;;45.15;28.17;;;8.40;91.80;;;;;;4989493;28;20049;-50
2021/04/29 09:37:03;;;;;;;48.25;29.25;;;8.40;92.00;;;;;;4989557;28;20053;-51
2021/04/29 09:39:34;;;;;;;45.17;29.17;;;8.40;91.90;;;;;;4987146;28;20042;-52
2021/04/29 09:41:59;;;;;;;51.83;30.85;;;8.40;91.80;;;;;;4989746;28;20035;-52
2021/04/29 09:44:26;;;;;;;42.28;27.90;;;8.40;91.80;;;;;;4988433;28;20038;-49
2021/04/29 09:47:00;;;;;;;45.25;28.55;;;8.50;92.00;;;;;;4989007;28;20050;-52
2021/04/29 09:49:28;;;;;;;43.47;29.30;;;8.50;92.00;;;;;;4989757;28;20061;-49
2021/04/29 09:51:55;;;;;;;44.55;29.30;;;8.50;91.80;;;;;;4989356;28;20093;-52
2021/04/29 09:54:30;;;;;;;46.70;31.05;;;8.50;91.90;;;;;;4987588;28;20042;-50
2021/04/29 09:56:58;;;;;;;44.53;29.15;;;8.60;92.00;;;;;;4989177;28;20078;-51
2021/04/29 09:59:25;;;;;;;43.40;28.13;;;8.60;91.90;;;;;;4976580;28;20047;-50
2021/04/29 10:01:53;;;;;;;49.15;29.33;;;8.60;92.00;;;;;;4972614;28;20529;-50
2021/04/29 10:04:21;;;;;;;48.35;28.73;;;8.60;92.10;;;;;;5047219;28;20394;-52
2021/04/29 10:06:46;;;;;;;45.53;29.05;;;8.60;92.00;;;;;;4988081;28;20058;-51
2021/04/29 10:09:14;;;;;;;44.17;29.65;;;8.70;92.20;;;;;;4988467;28;20046;-52
2021/04/29 10:11:41;;;;;;;45.25;28.42;;;8.70;92.00;;;;;;4981057;28;20074;-48
2021/04/29 10:14:09;;;;;;;45.30;29.17;;;8.70;92.10;;;;;;4984299;28;20102;-52
2021/04/29 10:16:35;;;;;;;42.30;28.50;;;8.70;92.00;;;;;;5017802;28;20089;-52
2021/04/29 10:19:01;;;;;;;41.95;28.50;;;8.70;92.10;;;;;;5015729;28;20042;-51
2021/04/29 10:21:27;;;;;;;41.55;27.80;;;8.70;92.10;;;;;;4989233;28;20053;-51
2021/04/29 10:23:53;;;;;;;42.95;27.92;;;8.70;92.20;;;;;;4996029;28;20034;-52
2021/04/29 10:26:29;;;;;;;46.53;28.88;;;8.70;92.10;;;;;;4989265;28;20129;-50
2021/04/29 10:28:58;;;;;;;42.80;27.10;;;8.80;92.30;;;;;;4989031;28;20034;-51
2021/04/29 10:31:26;;;;;;;40.92;28.85;;;8.70;92.20;;;;;;4995579;28;20039;-49
2021/04/29 10:34:17;;;;;;;43.03;28.27;;;8.70;92.10;;;;;;4987842;28;20078;-50
2021/04/29 10:36:48;;;;;;;42.88;28.15;;;8.80;92.40;;;;;;4988810;28;20066;-49
2021/04/29 10:39:18;;;;;;;46.60;28.73;;;8.70;92.40;;;;;;4989102;28;20046;-50
2021/04/29 10:42:01;;;;;;;44.83;28.35;;;8.70;92.60;;;;;;4988705;28;20258;-52
2021/04/29 10:44:26;;;;;;;38.67;27.67;;;8.70;92.70;;;;;;4989238;28;20054;-49
2021/04/29 10:47:02;;;;;;;43.67;27.98;;;8.70;92.40;;;;;;4985712;28;20056;-50
2021/04/29 10:49:30;;;;;;;41.08;29.02;;;8.70;92.60;;;;;;4993298;28;20387;-50
2021/04/29 10:52:00;;;;;;;43.17;28.42;;;8.70;92.40;;;;;;4987282;28;20089;-51
2021/04/29 10:54:26;;;;;;;36.65;27.10;;;8.70;92.50;;;;;;4993096;28;20470;-49
2021/04/29 10:57:05;;;;;;;44.03;27.27;;;8.80;92.50;;;;;;4974343;28;20117;-52
2021/04/29 11:00:04;;;;;;;43.38;28.52;;;8.80;92.50;;;;;;4989063;28;20038;-52
2021/04/29 11:02:34;;;;;;;38.65;26.73;;;8.90;92.70;;;;;;4982644;28;20039;-50
2021/04/29 11:05:01;;;;;;;40.53;28.63;;;8.90;92.60;;;;;;4981670;28;20070;-51
2021/04/29 11:07:29;;;;;;;40.00;26.75;;;8.90;92.30;;;;;;4988143;28;20070;-48
2021/04/29 11:10:11;;;;;;;40.58;27.77;;;9.00;92.40;;;;;;5024529;28;20041;-52
2021/04/29 11:12:56;;;;;;;40.55;27.77;;;9.00;92.60;;;;;;4989196;28;20038;-48
2021/04/29 11:15:31;;;;;;;41.60;28.38;;;9.00;92.50;;;;;;4988682;28;20157;-51
2021/04/29 11:18:05;;;;;;;45.75;29.38;;;9.10;92.70;;;;;;4995086;28;20038;-52
2021/04/29 11:21:03;;;;;;;38.78;26.90;;;9.10;92.70;;;;;;4990169;28;20046;-52
2021/04/29 11:23:41;;;;;;;38.40;26.10;;;9.10;92.90;;;;;;4997111;28;20098;-52
2021/04/29 11:26:15;;;;;;;38.47;25.58;;;9.10;92.70;;;;;;4998207;28;20409;-50
2021/04/29 11:28:42;;;;;;;37.80;26.60;;;9.10;92.40;;;;;;4991454;28;20049;-49
2021/04/29 11:31:08;;;;;;;38.17;26.63;;;9.10;92.50;;;;;;4990457;28;20287;-50
2021/04/29 11:33:37;;;;;;;38.15;25.38;;;9.10;92.80;;;;;;4992578;28;20108;-50
2021/04/29 11:36:14;;;;;;;35.63;24.35;;;9.10;92.50;;;;;;4991738;28;20045;-49
2021/04/29 11:38:54;;;;;;;31.92;22.90;;;9.10;92.40;;;;;;4984300;28;20046;-52
2021/04/29 11:41:21;;;;;;;34.58;24.20;;;9.10;92.50;;;;;;4989820;28;20058;-51
2021/04/29 11:44:05;;;;;;;31.30;22.60;;;9.10;92.60;;;;;;4992506;28;20122;-48
2021/04/29 11:46:34;;;;;;;31.08;22.90;;;9.10;92.70;;;;;;4991725;28;20117;-50
2021/04/29 11:49:06;;;;;;;34.83;23.92;;;9.10;92.50;;;;;;4991157;28;20049;-51
2021/04/29 11:51:34;;;;;;;35.05;24.95;;;9.10;92.70;;;;;;4992930;28;20047;-54
2021/04/29 11:54:06;;;;;;;33.88;23.08;;;9.10;92.80;;;;;;4989782;28;20450;-50
2021/04/29 11:56:45;;;;;;;28.27;21.42;;;9.10;92.60;;;;;;5019887;28;20042;-50
2021/04/29 11:59:12;;;;;;;28.85;21.15;;;9.10;92.70;;;;;;4991008;28;20121;-48
2021/04/29 12:01:39;;;;;;;30.48;20.85;;;9.00;92.70;;;;;;4992698;28;20066;-51
2021/04/29 12:04:22;;;;;;;31.30;21.13;;;9.00;92.70;;;;;;4991692;28;20137;-50
2021/04/29 12:06:52;;;;;;;29.15;20.42;;;9.00;92.70;;;;;;4991698;28;20538;-49
2021/04/29 12:09:20;;;;;;;32.38;22.35;;;9.00;92.60;;;;;;4987902;28;20514;-48
2021/04/29 12:11:46;;;;;;;31.17;21.65;;;9.00;92.50;;;;;;4993945;28;20121;-48
2021/04/29 12:14:26;;;;;;;28.33;21.83;;;9.00;92.60;;;;;;5006056;28;20062;-48
2021/04/29 12:16:58;;;;;;;31.27;22.23;;;9.00;92.60;;;;;;4989875;28;20058;-48
2021/04/29 12:19:29;;;;;;;33.50;23.92;;;9.00;92.60;;;;;;4982809;28;20034;-49
2021/04/29 12:21:57;;;;;;;35.58;24.73;;;9.00;92.50;;;;;;4983323;28;20065;-49
2021/04/29 12:24:23;;;;;;;35.25;24.05;;;9.00;92.60;;;;;;4991189;28;20073;-50
2021/04/29 12:26:48;;;;;;;28.95;19.95;;;9.00;92.80;;;;;;4992699;28;20502;-51
2021/04/29 12:29:19;;;;;;;23.13;17.45;;;9.00;92.90;;;;;;4995477;28;20069;-51
2021/04/29 12:31:54;;;;;;;23.40;18.02;;;9.00;92.70;;;;;;4980641;28;20138;-52
2021/04/29 12:34:20;;;;;;;27.90;20.17;;;8.90;92.70;;;;;;4989490;28;20505;-52
2021/04/29 12:36:57;;;;;;;28.60;20.80;;;8.80;92.60;;;;;;4990170;28;20449;-49
2021/04/29 12:39:26;;;;;;;27.80;20.85;;;8.70;92.90;;;;;;4989451;28;20527;-50